Terminal Aerodrome Forecast
Issued by NWS Cleveland, OH

Home | Current Version | Previous Version | Graphics & Text | Print | Product List | Glossary On
Versions: 1 2 3 4 5 6 7 8 9 10 11 12 13 14 15 16 17 18 19 20 21 22 23
000
FTUS41 KCLE 191700
TAFMFD
TAF
KMFD 191740Z 1918/2018 27005KT P6SM SCT028 BKN040
      TEMPO 1918/1922 BKN028
     FM192200 20008KT P6SM BKN035
      TEMPO 2000/2004 3SM TSRA OVC025CB
     FM200400 18004KT 6SM BR VCSH SCT012 BKN035
     FM200800 18004KT 4SM BR SCT012 BKN035
      TEMPO 2009/2013 1 1/2SM BR BKN012
     FM201400 25006KT 6SM HZ SCT025 BKN120=

USA.gov is the U.S. government's official web portal to all federal, state and local government web resources and services.